createdAt,value
2023-01-30T00:01:38.837Z,43.00
2023-01-30T00:04:03.543Z,44.92
2023-01-30T00:06:28.182Z,45.35
2023-01-30T00:08:53.041Z,42.97
2023-01-30T00:11:19.889Z,36.03
2023-01-30T00:13:45.734Z,38.08
2023-01-30T00:16:11.141Z,36.20
2023-01-30T00:18:37.349Z,44.10
2023-01-30T00:21:03.747Z,34.28
2023-01-30T00:23:29.305Z,45.17
2023-01-30T00:25:54.444Z,47.92
2023-01-30T00:28:19.231Z,44.05
2023-01-30T00:30:43.708Z,43.13
2023-01-30T00:33:08.427Z,41.17
2023-01-30T00:35:34.876Z,45.80
2023-01-30T00:38:00.864Z,35.90
2023-01-30T00:40:25.682Z,29.75
2023-01-30T00:43:08.870Z,38.75
2023-01-30T00:45:50.822Z,33.72
2023-01-30T00:48:15.410Z,33.42
2023-01-30T00:50:44.451Z,31.92
2023-01-30T00:53:12.671Z,33.33
2023-01-30T00:55:37.160Z,34.03
2023-01-30T00:58:01.828Z,31.25
2023-01-30T01:00:26.585Z,32.42
2023-01-30T01:02:51.241Z,39.22
2023-01-30T01:05:16.875Z,30.52
2023-01-30T01:07:43.546Z,27.60
2023-01-30T01:10:09.013Z,32.15
2023-01-30T01:12:33.653Z,27.38
2023-01-30T01:14:58.232Z,27.38
2023-01-30T01:17:23.278Z,23.45
2023-01-30T01:19:47.883Z,27.80
2023-01-30T01:22:12.455Z,25.10
2023-01-30T01:24:38.496Z,27.30
2023-01-30T01:27:03.522Z,23.98
2023-01-30T01:29:30.169Z,23.52
2023-01-30T01:31:55.775Z,24.95
2023-01-30T01:34:20.446Z,25.20
2023-01-30T01:36:53.852Z,20.17
2023-01-30T01:39:19.363Z,20.35
2023-01-30T01:41:44.290Z,26.50
2023-01-30T01:44:10.206Z,24.42
2023-01-30T01:46:40.158Z,20.40
2023-01-30T01:49:09.276Z,21.35
2023-01-30T01:51:38.552Z,21.00
2023-01-30T01:54:07.115Z,23.38
2023-01-30T01:56:34.513Z,22.85
2023-01-30T01:59:06.891Z,24.27
2023-01-30T02:01:32.599Z,23.63
2023-01-30T02:04:02.103Z,23.02
2023-01-30T02:06:27.032Z,20.60
2023-01-30T02:08:55.276Z,24.13
2023-01-30T02:11:27.177Z,27.33
2023-01-30T02:13:53.466Z,23.42
2023-01-30T02:16:20.748Z,25.58
2023-01-30T02:18:46.777Z,24.55
2023-01-30T02:21:42.508Z,26.17
2023-01-30T02:24:36.235Z,27.58
2023-01-30T02:27:17.081Z,22.35
2023-01-30T02:30:10.304Z,17.88
2023-01-30T02:32:42.969Z,23.67
2023-01-30T02:35:15.014Z,21.35
2023-01-30T02:37:52.835Z,22.00
2023-01-30T02:40:34.338Z,25.05
2023-01-30T02:43:07.536Z,23.92
2023-01-30T02:45:37.633Z,18.10
2023-01-30T02:48:05.498Z,20.95
2023-01-30T02:50:35.150Z,18.15
2023-01-30T02:53:00.009Z,26.17
2023-01-30T02:55:27.286Z,18.08
2023-01-30T02:57:52.516Z,12.88
2023-01-30T03:00:23.516Z,13.80
2023-01-30T03:03:16.624Z,15.98
2023-01-30T03:06:07.668Z,11.43
2023-01-30T03:08:41.401Z,15.70
2023-01-30T03:11:08.786Z,14.65
2023-01-30T03:13:47.002Z,13.48
2023-01-30T03:16:17.180Z,13.80
2023-01-30T03:18:42.984Z,13.25
2023-01-30T03:21:09.692Z,13.57
2023-01-30T03:23:34.341Z,12.43
2023-01-30T03:26:01.688Z,15.23
2023-01-30T03:28:26.834Z,13.73
2023-01-30T03:30:51.376Z,17.83
2023-01-30T03:33:15.978Z,14.55
2023-01-30T03:35:45.479Z,13.18
2023-01-30T03:38:13.835Z,15.45
2023-01-30T03:40:38.777Z,16.80
2023-01-30T03:43:03.459Z,17.25
2023-01-30T03:45:28.396Z,16.88
2023-01-30T03:47:53.220Z,18.58
2023-01-30T03:50:18.189Z,16.20
2023-01-30T03:52:43.637Z,18.23
2023-01-30T03:55:13.859Z,16.38
2023-01-30T03:57:38.491Z,20.33
2023-01-30T04:00:02.977Z,18.45
2023-01-30T04:02:29.819Z,23.23
2023-01-30T04:04:56.897Z,19.95
2023-01-30T04:07:21.691Z,18.13
2023-01-30T04:09:48.529Z,22.00
2023-01-30T04:12:16.588Z,20.48
2023-01-30T04:14:49.927Z,26.40
2023-01-30T04:17:37.777Z,19.48
2023-01-30T04:20:21.197Z,20.77
2023-01-30T04:22:50.155Z,22.50
2023-01-30T04:25:15.536Z,20.42
2023-01-30T04:27:41.677Z,18.95
2023-01-30T04:30:13.183Z,23.85
2023-01-30T04:32:38.875Z,21.83
2023-01-30T04:35:04.071Z,18.05
2023-01-30T04:37:29.379Z,21.95
2023-01-30T04:39:54.014Z,21.65
2023-01-30T04:42:19.054Z,24.65
2023-01-30T04:45:03.747Z,18.38
2023-01-30T04:47:29.340Z,21.80
2023-01-30T04:49:54.126Z,17.02
2023-01-30T04:52:18.947Z,21.15
2023-01-30T04:54:43.489Z,18.20
2023-01-30T04:57:08.257Z,19.33
2023-01-30T04:59:34.088Z,20.48
2023-01-30T05:02:04.005Z,19.30
2023-01-30T05:04:28.985Z,23.90
2023-01-30T05:06:53.578Z,17.10
2023-01-30T05:09:18.329Z,15.90
2023-01-30T05:11:42.788Z,20.63
2023-01-30T05:14:07.380Z,20.27
2023-01-30T05:16:31.740Z,22.45
2023-01-30T05:18:57.753Z,22.15
2023-01-30T05:21:26.021Z,20.20
2023-01-30T05:23:51.157Z,22.55
2023-01-30T05:26:17.025Z,20.35
2023-01-30T05:28:41.914Z,17.08
2023-01-30T05:31:08.443Z,18.80
2023-01-30T05:33:33.488Z,24.85
2023-01-30T05:35:59.586Z,37.05
2023-01-30T05:38:24.693Z,31.10
2023-01-30T05:40:49.359Z,93.10
2023-01-30T05:43:14.024Z,109.15
2023-01-30T05:45:38.575Z,50.65
2023-01-30T05:48:03.069Z,39.45
2023-01-30T05:50:28.151Z,45.80
2023-01-30T05:52:54.378Z,37.28
2023-01-30T05:55:19.086Z,29.15
2023-01-30T05:57:44.337Z,35.42
2023-01-30T06:00:10.714Z,29.50
2023-01-30T06:02:38.548Z,36.08
2023-01-30T06:05:03.509Z,59.33
2023-01-30T06:07:28.431Z,46.85
2023-01-30T06:09:54.562Z,30.73
2023-01-30T06:12:19.153Z,37.28
2023-01-30T06:14:43.600Z,27.23
2023-01-30T06:17:08.223Z,26.05
2023-01-30T06:19:32.789Z,30.70
2023-01-30T06:21:57.349Z,27.20
2023-01-30T06:24:21.878Z,30.83
2023-01-30T06:26:47.949Z,25.13
2023-01-30T06:29:12.424Z,29.40
2023-01-30T06:31:37.507Z,31.25
2023-01-30T06:34:02.164Z,33.25
2023-01-30T06:36:27.017Z,31.85
2023-01-30T06:38:51.864Z,33.33
2023-01-30T06:41:16.495Z,31.88
2023-01-30T06:43:43.305Z,29.02
2023-01-30T06:46:08.188Z,32.60
2023-01-30T06:48:32.788Z,30.50
2023-01-30T06:50:57.378Z,26.60
2023-01-30T06:53:22.441Z,31.52
2023-01-30T06:55:47.001Z,35.38
2023-01-30T06:58:12.989Z,30.08
2023-01-30T07:00:41.375Z,32.45
2023-01-30T07:03:06.056Z,33.60
2023-01-30T07:05:30.602Z,33.05
2023-01-30T07:07:55.532Z,33.72
2023-01-30T07:10:20.725Z,35.58
2023-01-30T07:12:46.389Z,33.17
2023-01-30T07:15:11.703Z,31.10
2023-01-30T07:17:37.909Z,34.65
2023-01-30T07:20:02.477Z,32.22
2023-01-30T07:22:27.534Z,35.00
2023-01-30T07:24:52.491Z,34.63
2023-01-30T07:27:17.242Z,38.03
2023-01-30T07:29:42.245Z,34.72
2023-01-30T07:32:08.299Z,37.83
2023-01-30T07:34:34.556Z,33.53
2023-01-30T07:36:59.167Z,36.53
2023-01-30T07:39:23.978Z,34.10
2023-01-30T07:41:48.571Z,40.47
2023-01-30T07:44:14.795Z,35.42
2023-01-30T07:46:39.463Z,34.47
2023-01-30T07:49:04.866Z,33.70
2023-01-30T07:51:31.239Z,31.60
2023-01-30T07:53:56.025Z,28.50
2023-01-30T07:56:21.462Z,27.90
2023-01-30T07:58:46.034Z,27.45
2023-01-30T08:01:10.637Z,33.72
2023-01-30T08:03:35.899Z,30.63
2023-01-30T08:06:00.849Z,31.52
2023-01-30T08:08:27.018Z,34.10
2023-01-30T08:10:51.733Z,27.75
2023-01-30T08:13:16.680Z,29.27
2023-01-30T08:15:41.282Z,28.98
2023-01-30T08:18:07.467Z,27.10
2023-01-30T08:20:32.237Z,28.33
2023-01-30T08:22:57.014Z,27.00
2023-01-30T08:25:23.733Z,28.85
2023-01-30T08:27:48.577Z,25.40
2023-01-30T08:30:14.178Z,24.40
2023-01-30T08:32:38.932Z,21.95
2023-01-30T08:35:03.532Z,21.88
2023-01-30T08:37:28.534Z,23.35
2023-01-30T08:39:53.370Z,18.52
2023-01-30T08:42:19.390Z,22.13
2023-01-30T08:44:43.984Z,18.13
2023-01-30T08:47:08.894Z,24.23
2023-01-30T08:49:33.751Z,19.23
2023-01-30T08:51:58.332Z,20.65
2023-01-30T08:54:23.048Z,20.85
2023-01-30T08:56:47.861Z,20.08
2023-01-30T08:59:14.241Z,21.13
2023-01-30T09:01:39.715Z,26.52
2023-01-30T09:04:04.457Z,18.75
2023-01-30T09:06:29.001Z,19.42
2023-01-30T09:08:53.702Z,23.48
2023-01-30T09:11:18.846Z,22.92
2023-01-30T09:13:44.790Z,29.98
2023-01-30T09:16:11.027Z,25.75
2023-01-30T09:18:35.938Z,24.13
2023-01-30T09:21:05.008Z,24.05
2023-01-30T09:23:29.764Z,25.42
2023-01-30T09:25:54.469Z,24.02
2023-01-30T09:28:18.947Z,22.20
2023-01-30T09:30:43.926Z,20.95
2023-01-30T09:33:09.997Z,22.17
2023-01-30T09:35:34.508Z,23.35
2023-01-30T09:38:00.589Z,20.85
2023-01-30T09:40:28.319Z,23.65
2023-01-30T09:43:11.301Z,25.55
2023-01-30T09:45:56.034Z,27.73
2023-01-30T09:48:29.020Z,26.58
2023-01-30T09:51:20.647Z,25.65
2023-01-30T09:54:06.161Z,21.77
2023-01-30T09:56:31.138Z,25.55
2023-01-30T09:58:58.385Z,21.88
2023-01-30T10:01:28.674Z,26.65
2023-01-30T10:04:07.942Z,32.85
2023-01-30T10:06:36.837Z,23.55
2023-01-30T10:09:08.821Z,26.33
2023-01-30T10:11:48.043Z,23.92
2023-01-30T10:14:49.728Z,26.02
2023-01-30T10:17:31.574Z,27.08
2023-01-30T10:20:16.158Z,24.85
2023-01-30T10:22:51.852Z,26.52
2023-01-30T10:25:26.259Z,27.73
2023-01-30T10:27:56.074Z,28.73
2023-01-30T10:30:21.927Z,28.33
2023-01-30T10:32:55.282Z,34.00
2023-01-30T10:35:26.203Z,30.27
2023-01-30T10:37:59.552Z,27.00
2023-01-30T10:40:29.651Z,30.05
2023-01-30T10:45:30.676Z,30.77
2023-01-30T10:48:03.035Z,33.30
2023-01-30T10:50:38.207Z,32.92
2023-01-30T10:53:14.336Z,32.47
2023-01-30T10:55:44.278Z,34.90
2023-01-30T10:58:16.841Z,32.70
2023-01-30T11:00:44.773Z,33.25
2023-01-30T11:03:23.602Z,35.58
2023-01-30T11:05:51.966Z,33.17
2023-01-30T11:08:25.399Z,32.35
2023-01-30T11:10:50.349Z,32.13
2023-01-30T11:13:18.625Z,32.63
2023-01-30T11:15:45.206Z,35.38
2023-01-30T11:18:49.791Z,32.72
2023-01-30T11:21:06.402Z,33.00
2023-01-30T11:23:35.316Z,31.92
2023-01-30T11:26:10.958Z,40.88
2023-01-30T11:28:41.534Z,34.63
2023-01-30T11:31:08.800Z,38.33
2023-01-30T11:33:36.311Z,36.00
2023-01-30T11:36:05.395Z,36.25
2023-01-30T11:38:31.777Z,33.63
2023-01-30T11:41:10.299Z,40.40
2023-01-30T11:43:35.703Z,36.67
2023-01-30T11:46:01.891Z,37.05
2023-01-30T11:48:33.282Z,42.00
2023-01-30T11:51:18.720Z,41.65
2023-01-30T11:53:47.093Z,33.47
2023-01-30T11:56:18.723Z,37.25
2023-01-30T11:58:46.456Z,39.70
2023-01-30T12:01:13.071Z,43.67
2023-01-30T12:03:45.833Z,42.63
2023-01-30T12:06:10.402Z,42.35
2023-01-30T12:08:42.350Z,42.88
2023-01-30T12:11:28.486Z,39.08
2023-01-30T12:13:55.017Z,43.88
2023-01-30T12:16:24.273Z,46.65
2023-01-30T12:18:57.806Z,39.83
2023-01-30T12:21:37.907Z,37.15
2023-01-30T12:24:12.915Z,41.78
2023-01-30T12:26:44.660Z,47.53
2023-01-30T12:29:24.635Z,49.70
2023-01-30T12:34:15.993Z,45.28
2023-01-30T12:36:49.378Z,45.60
2023-01-30T12:39:33.233Z,40.00
2023-01-30T12:42:28.313Z,44.38
2023-01-30T12:45:16.090Z,48.30
2023-01-30T12:48:06.121Z,44.30
2023-01-30T12:50:40.604Z,47.80
2023-01-30T12:53:23.124Z,45.05
2023-01-30T12:55:59.199Z,49.17
2023-01-30T12:58:31.207Z,51.58
2023-01-30T13:01:13.476Z,48.33
2023-01-30T13:03:43.447Z,50.00
2023-01-30T13:08:55.750Z,45.83
2023-01-30T13:11:45.120Z,43.47
2023-01-30T13:14:18.223Z,44.15
2023-01-30T13:16:58.044Z,37.72
2023-01-30T13:19:40.391Z,34.13
2023-01-30T13:22:10.367Z,38.10
2023-01-30T13:24:51.983Z,30.08
2023-01-30T13:27:21.917Z,31.23
2023-01-30T13:29:48.418Z,25.80
2023-01-30T13:32:19.370Z,31.95
2023-01-30T13:34:48.092Z,30.48
2023-01-30T13:37:14.645Z,32.58
2023-01-30T13:39:45.359Z,37.22
2023-01-30T13:42:17.784Z,34.35
2023-01-30T13:44:45.448Z,33.58
2023-01-30T13:47:21.774Z,33.97
2023-01-30T13:49:53.745Z,31.65
2023-01-30T13:52:27.641Z,32.95
2023-01-30T13:55:01.679Z,27.48
2023-01-30T13:57:41.964Z,27.80
2023-01-30T14:00:28.402Z,28.50
2023-01-30T14:03:30.634Z,29.65
2023-01-30T14:06:26.460Z,28.25
2023-01-30T14:08:55.253Z,28.05
2023-01-30T14:11:35.939Z,30.90
2023-01-30T14:14:05.216Z,31.67
2023-01-30T14:16:44.779Z,31.48
2023-01-30T14:19:38.697Z,30.67
2023-01-30T14:22:07.042Z,36.90
2023-01-30T14:24:32.175Z,34.78
2023-01-30T14:27:03.098Z,32.28
2023-01-30T14:29:57.147Z,36.85
2023-01-30T14:32:54.855Z,36.33
2023-01-30T14:35:30.293Z,39.00
2023-01-30T14:38:19.406Z,34.72
2023-01-30T14:40:49.425Z,33.60
2023-01-30T14:46:07.279Z,32.40
2023-01-30T14:48:37.719Z,31.40
2023-01-30T14:51:24.263Z,31.90
2023-01-30T14:53:52.962Z,27.55
2023-01-30T14:56:18.151Z,32.55
2023-01-30T14:58:53.306Z,35.13
2023-01-30T15:01:18.409Z,35.60
2023-01-30T15:03:49.487Z,33.40
2023-01-30T15:06:14.393Z,31.55
2023-01-30T15:08:43.396Z,40.10
2023-01-30T15:11:14.109Z,39.95
2023-01-30T15:14:03.154Z,33.30
2023-01-30T15:16:49.904Z,39.45
2023-01-30T15:19:37.013Z,37.40
2023-01-30T15:22:12.854Z,43.67
2023-01-30T15:25:09.516Z,43.15
2023-01-30T15:27:40.393Z,44.75
2023-01-30T15:30:22.781Z,39.42
2023-01-30T15:32:47.826Z,45.30
2023-01-30T15:35:28.618Z,41.00
2023-01-30T15:37:54.910Z,37.47
2023-01-30T15:40:25.488Z,39.08
2023-01-30T15:42:52.777Z,41.58
2023-01-30T15:45:25.937Z,45.22
2023-01-30T15:48:16.955Z,39.47
2023-01-30T15:50:49.862Z,49.13
2023-01-30T15:53:16.552Z,49.13
2023-01-30T15:55:43.236Z,43.67
2023-01-30T15:58:12.021Z,46.83
2023-01-30T16:00:40.620Z,42.20
2023-01-30T16:03:07.508Z,47.58
2023-01-30T16:05:32.473Z,49.03
2023-01-30T16:08:00.383Z,47.50
2023-01-30T16:10:27.531Z,46.17
2023-01-30T16:12:54.927Z,52.15
2023-01-30T16:15:27.466Z,55.30
2023-01-30T16:18:05.555Z,58.03
2023-01-30T16:20:33.336Z,53.40
2023-01-30T16:22:59.815Z,49.58
2023-01-30T16:25:30.016Z,50.50
2023-01-30T16:27:55.109Z,57.97
2023-01-30T16:30:26.201Z,53.42
2023-01-30T16:32:51.973Z,53.05
2023-01-30T16:35:27.452Z,55.67
2023-01-30T16:37:53.734Z,69.45
2023-01-30T16:40:23.033Z,63.65
2023-01-30T16:42:57.448Z,62.40
2023-01-30T16:46:20.543Z,58.15
2023-01-30T16:48:45.777Z,62.70
2023-01-30T16:51:25.733Z,69.20
2023-01-30T16:53:58.295Z,70.85
2023-01-30T16:56:24.449Z,71.63
2023-01-30T16:58:53.747Z,63.75
2023-01-30T17:01:18.609Z,68.25
2023-01-30T17:03:45.532Z,72.85
2023-01-30T17:06:20.739Z,75.30
2023-01-30T17:08:49.604Z,70.90
2023-01-30T17:11:33.046Z,69.82
2023-01-30T17:14:21.290Z,68.82
2023-01-30T17:16:46.417Z,80.78
2023-01-30T17:19:11.150Z,83.78
2023-01-30T17:21:43.546Z,72.20
2023-01-30T17:24:08.617Z,79.05
2023-01-30T17:26:35.255Z,75.35
2023-01-30T17:29:00.379Z,75.75
2023-01-30T17:31:24.885Z,79.28
2023-01-30T17:33:49.606Z,79.60
2023-01-30T17:36:22.411Z,82.45
2023-01-30T17:38:49.602Z,83.25
2023-01-30T17:41:20.949Z,93.32
2023-01-30T17:43:48.526Z,78.30
2023-01-30T17:46:15.073Z,80.35
2023-01-30T17:48:39.866Z,85.07
2023-01-30T17:51:04.496Z,90.05
2023-01-30T17:53:29.049Z,105.10
2023-01-30T17:55:53.472Z,92.72
2023-01-30T17:58:18.650Z,82.50
2023-01-30T18:00:44.470Z,87.35
2023-01-30T18:03:09.607Z,86.03
2023-01-30T18:05:35.235Z,74.63
2023-01-30T18:08:00.231Z,80.95
2023-01-30T18:10:25.022Z,84.20
2023-01-30T18:12:49.657Z,77.57
2023-01-30T18:15:16.564Z,72.07
2023-01-30T18:17:47.408Z,72.68
2023-01-30T18:20:14.373Z,84.45
2023-01-30T18:22:39.203Z,72.85
2023-01-30T18:25:03.986Z,67.07
2023-01-30T18:27:28.980Z,67.90
2023-01-30T18:29:53.483Z,65.30
2023-01-30T18:32:17.996Z,68.45
2023-01-30T18:34:44.030Z,70.82
2023-01-30T18:37:08.935Z,66.20
2023-01-30T18:39:33.434Z,67.72
2023-01-30T18:41:57.837Z,68.70
2023-01-30T18:44:22.456Z,65.75
2023-01-30T18:46:46.947Z,62.88
2023-01-30T18:49:13.027Z,67.05
2023-01-30T18:51:40.503Z,63.60
2023-01-30T18:54:05.194Z,62.38
2023-01-30T18:56:31.367Z,61.00
2023-01-30T18:58:56.484Z,68.10
2023-01-30T19:01:22.675Z,60.97
2023-01-30T19:03:47.271Z,64.55
2023-01-30T19:06:14.025Z,60.60
2023-01-30T19:08:42.210Z,53.30
2023-01-30T19:11:27.278Z,53.15
2023-01-30T19:13:50.867Z,55.42
2023-01-30T19:16:15.345Z,56.58
2023-01-30T19:18:40.403Z,54.28
2023-01-30T19:21:05.186Z,57.88
2023-01-30T19:23:30.301Z,55.83
2023-01-30T19:25:57.589Z,54.58
2023-01-30T19:28:22.080Z,59.15
2023-01-30T19:30:46.505Z,53.15
2023-01-30T19:33:11.360Z,59.10
2023-01-30T19:35:36.067Z,50.65
2023-01-30T19:38:00.730Z,50.92
2023-01-30T19:40:25.269Z,50.58
2023-01-30T19:42:54.757Z,46.50
2023-01-30T19:45:21.272Z,48.90
2023-01-30T19:47:45.764Z,45.72
2023-01-30T19:50:13.534Z,48.75
2023-01-30T19:52:38.220Z,50.03
2023-01-30T19:55:03.228Z,47.22
2023-01-30T19:57:27.723Z,52.10
2023-01-30T19:59:53.554Z,45.40
2023-01-30T20:02:17.935Z,45.50
2023-01-30T20:04:42.374Z,45.80
2023-01-30T20:07:06.855Z,49.88
2023-01-30T20:09:31.629Z,47.63
2023-01-30T20:11:56.067Z,50.22
2023-01-30T20:14:20.710Z,53.92
2023-01-30T20:16:46.781Z,49.17
2023-01-30T20:19:15.531Z,48.28
2023-01-30T20:21:40.515Z,43.85
2023-01-30T20:24:06.458Z,50.10
2023-01-30T20:26:36.077Z,52.58
2023-01-30T20:29:00.799Z,44.67
2023-01-30T20:31:28.413Z,43.92
2023-01-30T20:33:58.721Z,46.05
2023-01-30T20:36:23.872Z,47.17
2023-01-30T20:38:49.585Z,42.63
2023-01-30T20:41:16.084Z,48.65
2023-01-30T20:43:42.274Z,48.15
2023-01-30T20:46:09.264Z,44.17
2023-01-30T20:48:34.175Z,43.17
2023-01-30T20:51:08.609Z,42.33
2023-01-30T20:53:33.319Z,48.03
2023-01-30T20:55:58.914Z,52.88
2023-01-30T20:58:23.703Z,44.90
2023-01-30T21:00:48.184Z,48.75
2023-01-30T21:03:12.852Z,45.40
2023-01-30T21:05:38.292Z,49.65
2023-01-30T21:08:04.832Z,45.67
2023-01-30T21:10:29.445Z,52.58
2023-01-30T21:12:55.217Z,50.10
2023-01-30T21:15:20.384Z,50.22
2023-01-30T21:17:46.662Z,50.75
2023-01-30T21:20:14.012Z,55.60
2023-01-30T21:22:39.393Z,46.45
2023-01-30T21:25:06.190Z,51.25
2023-01-30T21:27:30.762Z,54.80
2023-01-30T21:29:55.287Z,53.45
2023-01-30T21:32:20.218Z,53.38
2023-01-30T21:34:44.690Z,56.30
2023-01-30T21:37:26.559Z,54.90
2023-01-30T21:40:08.507Z,56.22
2023-01-30T21:42:51.584Z,60.25
2023-01-30T21:45:16.737Z,51.92
2023-01-30T21:47:41.281Z,56.55
2023-01-30T21:50:07.001Z,57.47
2023-01-30T21:52:33.835Z,55.70
2023-01-30T21:54:59.134Z,55.08
2023-01-30T21:57:23.504Z,61.90
2023-01-30T21:59:49.582Z,56.65
2023-01-30T22:02:14.070Z,51.08
2023-01-30T22:04:40.084Z,51.85
2023-01-30T22:07:06.864Z,55.97
2023-01-30T22:09:31.505Z,56.60
2023-01-30T22:11:56.236Z,58.30
2023-01-30T22:14:20.913Z,54.28
2023-01-30T22:16:46.800Z,61.58
2023-01-30T22:19:11.879Z,60.55
2023-01-30T22:21:38.744Z,56.25
2023-01-30T22:24:05.420Z,57.47
2023-01-30T22:26:30.089Z,58.05
2023-01-30T22:28:56.506Z,58.70
2023-01-30T22:31:22.147Z,54.25
2023-01-30T22:33:50.206Z,59.33
2023-01-30T22:36:15.653Z,65.05
2023-01-30T22:38:44.392Z,58.92
2023-01-30T22:41:11.931Z,59.90
2023-01-30T22:43:38.460Z,59.58
2023-01-30T22:46:04.811Z,64.97
2023-01-30T22:48:30.152Z,61.47
2023-01-30T22:51:03.293Z,66.25
2023-01-30T22:53:27.944Z,67.28
2023-01-30T22:55:52.486Z,60.00
2023-01-30T22:58:17.072Z,68.82
2023-01-30T23:00:41.545Z,58.55
2023-01-30T23:03:06.236Z,58.40
2023-01-30T23:05:30.664Z,62.03
2023-01-30T23:07:56.600Z,62.83
2023-01-30T23:10:21.362Z,57.92
2023-01-30T23:13:03.184Z,68.05
2023-01-30T23:15:27.760Z,60.42
2023-01-30T23:18:09.851Z,63.45
2023-01-30T23:20:34.384Z,62.60
2023-01-30T23:23:00.537Z,61.95
2023-01-30T23:25:25.043Z,64.05
2023-01-30T23:27:49.728Z,60.58
2023-01-30T23:30:15.218Z,62.00
2023-01-30T23:32:39.989Z,58.85
2023-01-30T23:35:04.624Z,65.68
2023-01-30T23:37:42.849Z,56.67
2023-01-30T23:40:10.991Z,61.22
2023-01-30T23:42:35.503Z,59.25
2023-01-30T23:44:59.841Z,56.38
2023-01-30T23:47:24.551Z,57.10
2023-01-30T23:49:48.979Z,57.13
2023-01-30T23:52:14.160Z,62.90
2023-01-30T23:54:38.839Z,63.50
2023-01-30T23:57:05.025Z,59.05
2023-01-30T23:59:30.014Z,63.83
